sensor_id;sensor_type;location;lat;lon;timestamp;noise_LAeq;noise_LA_min;noise_LA_max;noise_LA01;noise_LA95
72858;Laerm;62742;52.136;4.500;2023-01-16T00:01:26;49.42;46.75;53.40;;
72858;Laerm;62742;52.136;4.500;2023-01-16T00:03:53;49.73;46.46;58.38;;
72858;Laerm;62742;52.136;4.500;2023-01-16T00:06:19;49.52;47.02;52.47;;
72858;Laerm;62742;52.136;4.500;2023-01-16T00:08:45;49.66;46.86;52.18;;
72858;Laerm;62742;52.136;4.500;2023-01-16T00:11:14;49.53;46.78;52.12;;
72858;Laerm;62742;52.136;4.500;2023-01-16T00:13:40;49.49;47.03;52.10;;
72858;Laerm;62742;52.136;4.500;2023-01-16T00:16:07;49.52;46.84;57.66;;
72858;Laerm;62742;52.136;4.500;2023-01-16T00:18:34;49.45;46.73;51.61;;
72858;Laerm;62742;52.136;4.500;2023-01-16T00:21:00;49.48;46.55;52.10;;
72858;Laerm;62742;52.136;4.500;2023-01-16T00:23:27;49.50;46.72;52.60;;
72858;Laerm;62742;52.136;4.500;2023-01-16T00:25:53;49.44;46.33;51.76;;
72858;Laerm;62742;52.136;4.500;2023-01-16T00:28:19;49.15;46.64;51.34;;
72858;Laerm;62742;52.136;4.500;2023-01-16T00:30:46;49.23;46.41;51.67;;
72858;Laerm;62742;52.136;4.500;2023-01-16T00:33:12;49.45;46.59;52.34;;
72858;Laerm;62742;52.136;4.500;2023-01-16T00:35:39;49.20;46.06;53.03;;
72858;Laerm;62742;52.136;4.500;2023-01-16T00:38:05;49.38;46.64;54.02;;
72858;Laerm;62742;52.136;4.500;2023-01-16T00:40:32;49.28;43.46;56.17;;
72858;Laerm;62742;52.136;4.500;2023-01-16T00:42:58;48.96;46.22;51.74;;
72858;Laerm;62742;52.136;4.500;2023-01-16T00:45:24;48.70;46.04;53.25;;
72858;Laerm;62742;52.136;4.500;2023-01-16T00:47:50;48.73;46.01;53.12;;
72858;Laerm;62742;52.136;4.500;2023-01-16T00:50:16;48.98;46.05;52.33;;
72858;Laerm;62742;52.136;4.500;2023-01-16T00:52:43;49.30;46.36;52.77;;
72858;Laerm;62742;52.136;4.500;2023-01-16T00:55:09;49.45;46.87;53.25;;
72858;Laerm;62742;52.136;4.500;2023-01-16T00:57:35;49.35;46.55;52.61;;
72858;Laerm;62742;52.136;4.500;2023-01-16T01:00:02;49.44;46.56;53.93;;
72858;Laerm;62742;52.136;4.500;2023-01-16T01:02:29;49.41;46.44;53.08;;
72858;Laerm;62742;52.136;4.500;2023-01-16T01:04:55;49.05;46.25;52.05;;
72858;Laerm;62742;52.136;4.500;2023-01-16T01:07:21;49.29;45.32;55.15;;
72858;Laerm;62742;52.136;4.500;2023-01-16T01:09:50;49.52;46.55;55.28;;
72858;Laerm;62742;52.136;4.500;2023-01-16T01:12:16;49.48;46.33;55.50;;
72858;Laerm;62742;52.136;4.500;2023-01-16T01:14:42;48.95;46.45;54.17;;
72858;Laerm;62742;52.136;4.500;2023-01-16T01:17:08;49.47;46.51;52.79;;
72858;Laerm;62742;52.136;4.500;2023-01-16T01:19:35;49.12;45.84;52.30;;
72858;Laerm;62742;52.136;4.500;2023-01-16T01:22:01;49.00;45.85;54.76;;
72858;Laerm;62742;52.136;4.500;2023-01-16T01:24:28;49.11;46.04;53.34;;
72858;Laerm;62742;52.136;4.500;2023-01-16T01:26:54;48.98;46.48;52.19;;
72858;Laerm;62742;52.136;4.500;2023-01-16T01:29:20;49.42;46.83;54.12;;
72858;Laerm;62742;52.136;4.500;2023-01-16T01:31:46;49.20;46.17;53.66;;
72858;Laerm;62742;52.136;4.500;2023-01-16T01:34:12;49.36;46.73;52.05;;
72858;Laerm;62742;52.136;4.500;2023-01-16T01:36:38;49.28;46.25;53.17;;
72858;Laerm;62742;52.136;4.500;2023-01-16T01:39:05;49.42;46.15;52.77;;
72858;Laerm;62742;52.136;4.500;2023-01-16T01:41:31;49.07;45.69;53.93;;
72858;Laerm;62742;52.136;4.500;2023-01-16T01:43:57;48.97;46.32;55.70;;
72858;Laerm;62742;52.136;4.500;2023-01-16T01:49:21;49.53;46.60;53.08;;
72858;Laerm;62742;52.136;4.500;2023-01-16T01:51:43;49.21;46.21;52.70;;
72858;Laerm;62742;52.136;4.500;2023-01-16T01:54:17;49.06;46.44;56.04;;
72858;Laerm;62742;52.136;4.500;2023-01-16T01:56:56;49.00;46.30;51.59;;
72858;Laerm;62742;52.136;4.500;2023-01-16T01:59:32;48.96;46.16;54.70;;
72858;Laerm;62742;52.136;4.500;2023-01-16T02:02:01;49.37;46.63;53.23;;
72858;Laerm;62742;52.136;4.500;2023-01-16T02:04:32;48.25;45.40;51.35;;
72858;Laerm;62742;52.136;4.500;2023-01-16T02:07:06;48.43;45.16;53.67;;
72858;Laerm;62742;52.136;4.500;2023-01-16T02:09:33;48.53;45.85;51.80;;
72858;Laerm;62742;52.136;4.500;2023-01-16T02:12:03;49.54;46.36;55.53;;
72858;Laerm;62742;52.136;4.500;2023-01-16T02:14:34;49.04;46.24;55.35;;
72858;Laerm;62742;52.136;4.500;2023-01-16T02:17:09;49.48;45.81;56.78;;
72858;Laerm;62742;52.136;4.500;2023-01-16T02:39:18;49.12;45.97;54.09;;
72858;Laerm;62742;52.136;4.500;2023-01-16T02:56:01;49.07;46.16;53.70;;
72858;Laerm;62742;52.136;4.500;2023-01-16T02:58:31;50.04;46.18;55.05;;
72858;Laerm;62742;52.136;4.500;2023-01-16T03:01:00;49.99;46.87;56.37;;
72858;Laerm;62742;52.136;4.500;2023-01-16T03:11:19;49.90;47.15;55.27;;
72858;Laerm;62742;52.136;4.500;2023-01-16T03:14:16;49.74;46.94;55.12;;
72858;Laerm;62742;52.136;4.500;2023-01-16T03:22:25;49.16;45.95;55.21;;
72858;Laerm;62742;52.136;4.500;2023-01-16T03:27:36;49.68;46.37;57.81;;
72858;Laerm;62742;52.136;4.500;2023-01-16T03:30:14;50.09;46.49;54.64;;
72858;Laerm;62742;52.136;4.500;2023-01-16T03:32:50;49.90;46.72;57.84;;
72858;Laerm;62742;52.136;4.500;2023-01-16T03:35:25;49.75;46.47;56.16;;
72858;Laerm;62742;52.136;4.500;2023-01-16T03:37:57;49.47;46.29;58.26;;
72858;Laerm;62742;52.136;4.500;2023-01-16T03:40:32;49.31;46.67;55.08;;
72858;Laerm;62742;52.136;4.500;2023-01-16T03:43:25;49.50;46.65;54.39;;
72858;Laerm;62742;52.136;4.500;2023-01-16T03:45:59;49.55;46.64;55.43;;
72858;Laerm;62742;52.136;4.500;2023-01-16T03:51:34;49.55;46.01;57.72;;
72858;Laerm;62742;52.136;4.500;2023-01-16T03:54:09;49.40;46.67;54.62;;
72858;Laerm;62742;52.136;4.500;2023-01-16T03:56:47;49.33;46.90;52.75;;
72858;Laerm;62742;52.136;4.500;2023-01-16T03:59:16;49.45;45.55;58.08;;
72858;Laerm;62742;52.136;4.500;2023-01-16T04:01:54;49.85;46.99;55.90;;
72858;Laerm;62742;52.136;4.500;2023-01-16T04:04:25;49.91;47.20;53.69;;
72858;Laerm;62742;52.136;4.500;2023-01-16T04:07:08;49.55;46.40;52.11;;
72858;Laerm;62742;52.136;4.500;2023-01-16T04:09:48;49.47;46.25;54.31;;
72858;Laerm;62742;52.136;4.500;2023-01-16T04:12:20;49.72;46.82;55.32;;
72858;Laerm;62742;52.136;4.500;2023-01-16T04:14:53;49.29;45.89;54.46;;
72858;Laerm;62742;52.136;4.500;2023-01-16T04:17:22;49.37;46.17;52.40;;
72858;Laerm;62742;52.136;4.500;2023-01-16T04:19:49;49.31;46.87;52.34;;
72858;Laerm;62742;52.136;4.500;2023-01-16T04:22:33;49.31;46.53;53.65;;
72858;Laerm;62742;52.136;4.500;2023-01-16T04:25:03;49.34;46.54;53.34;;
72858;Laerm;62742;52.136;4.500;2023-01-16T04:27:31;49.48;43.04;55.66;;
72858;Laerm;62742;52.136;4.500;2023-01-16T04:29:57;50.18;47.08;53.33;;
72858;Laerm;62742;52.136;4.500;2023-01-16T04:32:24;49.93;46.87;53.02;;
72858;Laerm;62742;52.136;4.500;2023-01-16T04:34:50;49.31;46.89;52.01;;
72858;Laerm;62742;52.136;4.500;2023-01-16T04:37:17;49.56;46.68;53.72;;
72858;Laerm;62742;52.136;4.500;2023-01-16T04:39:44;49.71;46.50;53.12;;
72858;Laerm;62742;52.136;4.500;2023-01-16T04:42:10;49.77;46.83;52.24;;
72858;Laerm;62742;52.136;4.500;2023-01-16T04:44:37;49.81;47.18;53.83;;
72858;Laerm;62742;52.136;4.500;2023-01-16T04:47:03;49.66;46.54;53.23;;
72858;Laerm;62742;52.136;4.500;2023-01-16T04:49:29;49.37;45.59;56.59;;
72858;Laerm;62742;52.136;4.500;2023-01-16T04:51:56;49.66;47.00;52.55;;
72858;Laerm;62742;52.136;4.500;2023-01-16T04:54:22;49.68;46.58;54.62;;
72858;Laerm;62742;52.136;4.500;2023-01-16T04:56:48;49.60;46.65;54.23;;
72858;Laerm;62742;52.136;4.500;2023-01-16T04:59:14;49.36;46.57;55.32;;
72858;Laerm;62742;52.136;4.500;2023-01-16T05:01:42;49.57;47.00;55.13;;
72858;Laerm;62742;52.136;4.500;2023-01-16T05:04:09;49.56;42.78;57.22;;
72858;Laerm;62742;52.136;4.500;2023-01-16T05:06:35;49.28;46.77;52.27;;
72858;Laerm;62742;52.136;4.500;2023-01-16T05:09:03;49.91;46.66;54.38;;
72858;Laerm;62742;52.136;4.500;2023-01-16T05:11:30;49.89;46.83;55.22;;
72858;Laerm;62742;52.136;4.500;2023-01-16T05:13:56;49.15;46.41;52.77;;
72858;Laerm;62742;52.136;4.500;2023-01-16T05:16:23;49.17;45.83;52.29;;
72858;Laerm;62742;52.136;4.500;2023-01-16T05:18:49;49.67;46.72;53.91;;
72858;Laerm;62742;52.136;4.500;2023-01-16T05:21:15;49.66;46.14;54.16;;
72858;Laerm;62742;52.136;4.500;2023-01-16T05:23:41;49.78;47.14;53.22;;
72858;Laerm;62742;52.136;4.500;2023-01-16T05:26:08;49.36;46.34;53.11;;
72858;Laerm;62742;52.136;4.500;2023-01-16T05:28:35;48.96;45.70;53.52;;
72858;Laerm;62742;52.136;4.500;2023-01-16T05:31:02;49.14;46.05;52.68;;
72858;Laerm;62742;52.136;4.500;2023-01-16T05:33:28;48.94;46.25;53.70;;
72858;Laerm;62742;52.136;4.500;2023-01-16T05:35:55;48.97;46.37;51.20;;
72858;Laerm;62742;52.136;4.500;2023-01-16T05:38:22;48.85;46.08;52.09;;
72858;Laerm;62742;52.136;4.500;2023-01-16T05:40:48;48.99;46.04;51.46;;
72858;Laerm;62742;52.136;4.500;2023-01-16T05:43:15;49.15;46.21;51.86;;
72858;Laerm;62742;52.136;4.500;2023-01-16T05:45:41;49.00;46.47;51.34;;
72858;Laerm;62742;52.136;4.500;2023-01-16T05:48:07;49.25;46.12;51.93;;
72858;Laerm;62742;52.136;4.500;2023-01-16T05:50:33;49.01;46.45;51.63;;
72858;Laerm;62742;52.136;4.500;2023-01-16T05:53:00;49.25;46.43;52.76;;
72858;Laerm;62742;52.136;4.500;2023-01-16T05:55:26;49.18;46.18;51.54;;
72858;Laerm;62742;52.136;4.500;2023-01-16T05:57:52;48.85;46.22;53.64;;
72858;Laerm;62742;52.136;4.500;2023-01-16T06:00:19;49.40;45.97;53.48;;
72858;Laerm;62742;52.136;4.500;2023-01-16T06:02:45;49.41;46.67;53.25;;
72858;Laerm;62742;52.136;4.500;2023-01-16T06:05:13;49.89;47.11;55.42;;
72858;Laerm;62742;52.136;4.500;2023-01-16T06:07:39;49.64;46.77;55.06;;
72858;Laerm;62742;52.136;4.500;2023-01-16T06:10:09;49.65;45.97;55.97;;
72858;Laerm;62742;52.136;4.500;2023-01-16T06:12:36;49.53;46.82;53.42;;
72858;Laerm;62742;52.136;4.500;2023-01-16T06:15:02;49.77;46.78;55.33;;
72858;Laerm;62742;52.136;4.500;2023-01-16T06:17:28;49.74;46.74;55.28;;
72858;Laerm;62742;52.136;4.500;2023-01-16T06:19:54;50.48;47.79;55.62;;
72858;Laerm;62742;52.136;4.500;2023-01-16T06:22:22;50.79;47.37;57.05;;
72858;Laerm;62742;52.136;4.500;2023-01-16T06:24:48;50.92;47.90;56.60;;
72858;Laerm;62742;52.136;4.500;2023-01-16T06:27:15;50.53;47.55;56.02;;
72858;Laerm;62742;52.136;4.500;2023-01-16T06:29:41;50.05;46.43;54.89;;
72858;Laerm;62742;52.136;4.500;2023-01-16T06:32:07;51.12;46.89;56.00;;
72858;Laerm;62742;52.136;4.500;2023-01-16T06:34:34;50.36;46.32;55.91;;
72858;Laerm;62742;52.136;4.500;2023-01-16T06:37:00;51.13;45.82;56.47;;
72858;Laerm;62742;52.136;4.500;2023-01-16T06:39:26;48.86;45.86;53.07;;
72858;Laerm;62742;52.136;4.500;2023-01-16T06:41:52;48.95;45.00;53.60;;
72858;Laerm;62742;52.136;4.500;2023-01-16T06:44:18;49.53;46.38;53.65;;
72858;Laerm;62742;52.136;4.500;2023-01-16T06:46:45;49.81;46.58;54.25;;
72858;Laerm;62742;52.136;4.500;2023-01-16T06:49:11;50.37;46.54;55.44;;
72858;Laerm;62742;52.136;4.500;2023-01-16T06:51:37;50.62;46.97;55.49;;
72858;Laerm;62742;52.136;4.500;2023-01-16T06:54:04;50.49;47.07;54.51;;
72858;Laerm;62742;52.136;4.500;2023-01-16T06:56:30;50.44;47.03;58.15;;
72858;Laerm;62742;52.136;4.500;2023-01-16T06:58:56;50.83;46.02;56.00;;
72858;Laerm;62742;52.136;4.500;2023-01-16T07:01:22;50.92;46.90;57.70;;
72858;Laerm;62742;52.136;4.500;2023-01-16T07:03:49;49.96;45.63;58.85;;
72858;Laerm;62742;52.136;4.500;2023-01-16T07:06:15;49.63;46.33;55.94;;
72858;Laerm;62742;52.136;4.500;2023-01-16T07:08:41;50.02;46.36;57.08;;
72858;Laerm;62742;52.136;4.500;2023-01-16T07:11:09;49.76;46.18;56.31;;
72858;Laerm;62742;52.136;4.500;2023-01-16T07:13:35;49.29;45.38;55.44;;
72858;Laerm;62742;52.136;4.500;2023-01-16T07:16:01;49.85;45.10;56.56;;
72858;Laerm;62742;52.136;4.500;2023-01-16T07:18:46;49.36;46.11;55.80;;
72858;Laerm;62742;52.136;4.500;2023-01-16T07:21:31;49.40;45.49;55.36;;
72858;Laerm;62742;52.136;4.500;2023-01-16T07:24:20;49.57;46.02;54.65;;
72858;Laerm;62742;52.136;4.500;2023-01-16T07:26:53;49.40;44.85;58.36;;
72858;Laerm;62742;52.136;4.500;2023-01-16T07:29:24;49.93;46.70;54.86;;
72858;Laerm;62742;52.136;4.500;2023-01-16T07:31:51;49.79;46.66;55.20;;
72858;Laerm;62742;52.136;4.500;2023-01-16T07:34:18;48.89;45.89;55.16;;
72858;Laerm;62742;52.136;4.500;2023-01-16T07:36:45;49.65;46.17;56.38;;
72858;Laerm;62742;52.136;4.500;2023-01-16T07:39:11;49.11;46.12;58.32;;
72858;Laerm;62742;52.136;4.500;2023-01-16T07:41:37;48.66;45.18;53.17;;
72858;Laerm;62742;52.136;4.500;2023-01-16T07:44:03;48.85;45.17;54.08;;
72858;Laerm;62742;52.136;4.500;2023-01-16T07:46:30;49.16;46.14;54.22;;
72858;Laerm;62742;52.136;4.500;2023-01-16T07:48:56;49.25;46.11;54.66;;
72858;Laerm;62742;52.136;4.500;2023-01-16T07:51:22;49.56;46.24;54.39;;
72858;Laerm;62742;52.136;4.500;2023-01-16T07:53:49;49.18;46.42;54.51;;
72858;Laerm;62742;52.136;4.500;2023-01-16T07:56:16;49.49;45.44;54.61;;
72858;Laerm;62742;52.136;4.500;2023-01-16T07:58:42;49.27;46.15;54.02;;
72858;Laerm;62742;52.136;4.500;2023-01-16T08:01:10;48.97;45.82;53.96;;
72858;Laerm;62742;52.136;4.500;2023-01-16T08:03:37;48.90;45.67;55.47;;
72858;Laerm;62742;52.136;4.500;2023-01-16T08:06:04;48.89;45.83;52.74;;
72858;Laerm;62742;52.136;4.500;2023-01-16T08:08:30;48.58;45.80;55.80;;
72858;Laerm;62742;52.136;4.500;2023-01-16T08:11:00;48.42;45.05;52.77;;
72858;Laerm;62742;52.136;4.500;2023-01-16T08:13:47;48.08;45.29;55.17;;
72858;Laerm;62742;52.136;4.500;2023-01-16T08:16:13;48.20;45.71;52.90;;
72858;Laerm;62742;52.136;4.500;2023-01-16T08:18:41;48.60;45.24;52.90;;
72858;Laerm;62742;52.136;4.500;2023-01-16T08:21:08;48.33;44.83;51.53;;
72858;Laerm;62742;52.136;4.500;2023-01-16T08:23:37;48.19;45.17;52.58;;
72858;Laerm;62742;52.136;4.500;2023-01-16T08:26:10;48.38;45.05;53.03;;
72858;Laerm;62742;52.136;4.500;2023-01-16T08:28:37;48.71;45.72;54.03;;
72858;Laerm;62742;52.136;4.500;2023-01-16T08:31:09;48.82;45.91;54.74;;
72858;Laerm;62742;52.136;4.500;2023-01-16T08:33:39;48.69;45.55;55.41;;
72858;Laerm;62742;52.136;4.500;2023-01-16T08:36:08;48.82;45.30;55.01;;
72858;Laerm;62742;52.136;4.500;2023-01-16T08:38:35;48.87;45.70;55.31;;
72858;Laerm;62742;52.136;4.500;2023-01-16T08:41:01;48.58;45.22;54.58;;
72858;Laerm;62742;52.136;4.500;2023-01-16T08:43:28;48.31;44.97;52.12;;
72858;Laerm;62742;52.136;4.500;2023-01-16T08:46:17;48.48;45.15;53.88;;
72858;Laerm;62742;52.136;4.500;2023-01-16T08:49:04;48.53;45.41;55.25;;
72858;Laerm;62742;52.136;4.500;2023-01-16T08:51:53;48.79;44.77;54.14;;
72858;Laerm;62742;52.136;4.500;2023-01-16T08:54:19;48.46;45.08;53.19;;
72858;Laerm;62742;52.136;4.500;2023-01-16T08:56:45;48.76;45.27;53.96;;
72858;Laerm;62742;52.136;4.500;2023-01-16T08:59:12;48.77;45.93;52.88;;
72858;Laerm;62742;52.136;4.500;2023-01-16T09:01:38;49.05;45.90;52.87;;
72858;Laerm;62742;52.136;4.500;2023-01-16T09:04:05;49.51;46.81;52.87;;
72858;Laerm;62742;52.136;4.500;2023-01-16T09:06:32;49.38;45.90;53.52;;
72858;Laerm;62742;52.136;4.500;2023-01-16T09:09:04;48.80;45.55;53.13;;
72858;Laerm;62742;52.136;4.500;2023-01-16T09:11:34;48.97;45.69;53.63;;
72858;Laerm;62742;52.136;4.500;2023-01-16T09:14:22;48.82;45.30;53.06;;
72858;Laerm;62742;52.136;4.500;2023-01-16T09:16:48;49.22;45.91;54.84;;
72858;Laerm;62742;52.136;4.500;2023-01-16T09:19:16;48.69;45.96;54.19;;
72858;Laerm;62742;52.136;4.500;2023-01-16T09:21:42;49.12;46.27;57.30;;
72858;Laerm;62742;52.136;4.500;2023-01-16T09:24:08;50.16;45.93;55.08;;
72858;Laerm;62742;52.136;4.500;2023-01-16T09:26:34;50.79;46.58;55.95;;
72858;Laerm;62742;52.136;4.500;2023-01-16T09:29:01;49.83;46.67;53.26;;
72858;Laerm;62742;52.136;4.500;2023-01-16T09:31:27;50.35;46.91;53.88;;
72858;Laerm;62742;52.136;4.500;2023-01-16T09:33:53;49.99;45.96;52.72;;
72858;Laerm;62742;52.136;4.500;2023-01-16T09:36:21;50.42;46.91;54.87;;
72858;Laerm;62742;52.136;4.500;2023-01-16T09:38:47;50.37;47.04;55.27;;
72858;Laerm;62742;52.136;4.500;2023-01-16T09:41:16;50.69;47.33;53.74;;
72858;Laerm;62742;52.136;4.500;2023-01-16T09:44:07;50.74;46.67;53.60;;
72858;Laerm;62742;52.136;4.500;2023-01-16T09:46:45;50.70;46.85;53.91;;
72858;Laerm;62742;52.136;4.500;2023-01-16T09:49:38;50.85;47.19;54.62;;
72858;Laerm;62742;52.136;4.500;2023-01-16T09:52:12;50.97;45.71;54.65;;
72858;Laerm;62742;52.136;4.500;2023-01-16T09:55:06;50.97;47.27;55.84;;
72858;Laerm;62742;52.136;4.500;2023-01-16T09:57:55;50.81;47.20;55.23;;
72858;Laerm;62742;52.136;4.500;2023-01-16T10:00:40;50.58;45.85;54.79;;
72858;Laerm;62742;52.136;4.500;2023-01-16T10:03:08;51.16;47.24;56.15;;
72858;Laerm;62742;52.136;4.500;2023-01-16T10:05:48;51.34;47.06;54.69;;
72858;Laerm;62742;52.136;4.500;2023-01-16T10:08:49;51.41;47.72;56.56;;
72858;Laerm;62742;52.136;4.500;2023-01-16T10:11:20;51.00;46.83;56.89;;
72858;Laerm;62742;52.136;4.500;2023-01-16T10:19:29;51.01;46.98;57.22;;
72858;Laerm;62742;52.136;4.500;2023-01-16T10:30:26;49.12;45.94;54.25;;
72858;Laerm;62742;52.136;4.500;2023-01-16T10:33:25;49.12;45.58;56.69;;
72858;Laerm;62742;52.136;4.500;2023-01-16T10:35:55;49.53;46.49;54.91;;
72858;Laerm;62742;52.136;4.500;2023-01-16T10:38:43;48.75;45.31;53.68;;
72858;Laerm;62742;52.136;4.500;2023-01-16T10:41:32;50.31;46.26;55.92;;
72858;Laerm;62742;52.136;4.500;2023-01-16T10:44:36;50.56;46.39;56.12;;
72858;Laerm;62742;52.136;4.500;2023-01-16T10:47:27;50.37;44.56;55.81;;
72858;Laerm;62742;52.136;4.500;2023-01-16T10:50:13;48.88;45.68;53.93;;
72858;Laerm;62742;52.136;4.500;2023-01-16T10:52:40;48.44;45.27;55.10;;
72858;Laerm;62742;52.136;4.500;2023-01-16T10:55:08;48.03;45.23;52.11;;
72858;Laerm;62742;52.136;4.500;2023-01-16T10:58:02;48.20;43.52;54.81;;
72858;Laerm;62742;52.136;4.500;2023-01-16T11:00:34;48.48;45.70;53.57;;
72858;Laerm;62742;52.136;4.500;2023-01-16T11:03:11;49.15;45.19;55.66;;
72858;Laerm;62742;52.136;4.500;2023-01-16T11:05:40;50.96;45.87;57.48;;
72858;Laerm;62742;52.136;4.500;2023-01-16T11:08:10;49.54;45.46;56.04;;
72858;Laerm;62742;52.136;4.500;2023-01-16T11:10:39;48.83;45.90;52.75;;
72858;Laerm;62742;52.136;4.500;2023-01-16T11:13:33;48.94;45.93;53.92;;
72858;Laerm;62742;52.136;4.500;2023-01-16T11:16:18;48.63;45.57;53.48;;
72858;Laerm;62742;52.136;4.500;2023-01-16T11:19:22;48.28;45.31;53.18;;
72858;Laerm;62742;52.136;4.500;2023-01-16T11:21:55;49.14;45.95;56.09;;
72858;Laerm;62742;52.136;4.500;2023-01-16T11:24:31;48.65;45.55;55.42;;
72858;Laerm;62742;52.136;4.500;2023-01-16T11:27:00;48.80;45.61;54.95;;
72858;Laerm;62742;52.136;4.500;2023-01-16T11:29:36;48.84;45.76;55.63;;
72858;Laerm;62742;52.136;4.500;2023-01-16T11:32:06;49.01;45.89;54.11;;
72858;Laerm;62742;52.136;4.500;2023-01-16T11:34:36;49.32;46.06;56.21;;
72858;Laerm;62742;52.136;4.500;2023-01-16T11:37:05;49.76;46.07;56.56;;
72858;Laerm;62742;52.136;4.500;2023-01-16T11:39:35;49.39;45.90;56.65;;
72858;Laerm;62742;52.136;4.500;2023-01-16T11:42:09;50.02;45.81;56.57;;
72858;Laerm;62742;52.136;4.500;2023-01-16T11:44:57;50.23;45.16;56.96;;
72858;Laerm;62742;52.136;4.500;2023-01-16T11:47:50;49.76;44.51;56.85;;
72858;Laerm;62742;52.136;4.500;2023-01-16T11:50:27;49.97;44.07;57.63;;
72858;Laerm;62742;52.136;4.500;2023-01-16T11:52:57;50.90;44.96;58.28;;
72858;Laerm;62742;52.136;4.500;2023-01-16T11:55:36;50.83;46.55;57.43;;
72858;Laerm;62742;52.136;4.500;2023-01-16T11:58:14;50.89;46.09;57.42;;
72858;Laerm;62742;52.136;4.500;2023-01-16T12:00:47;50.25;44.56;58.78;;
72858;Laerm;62742;52.136;4.500;2023-01-16T12:11:08;51.33;46.76;62.01;;
72858;Laerm;62742;52.136;4.500;2023-01-16T12:26:05;51.61;45.83;59.49;;
72858;Laerm;62742;52.136;4.500;2023-01-16T12:33:45;52.55;47.23;58.91;;
72858;Laerm;62742;52.136;4.500;2023-01-16T12:39:10;52.29;47.23;57.63;;
72858;Laerm;62742;52.136;4.500;2023-01-16T12:45:14;51.14;46.99;57.27;;
72858;Laerm;62742;52.136;4.500;2023-01-16T12:58:45;48.99;46.03;54.40;;
72858;Laerm;62742;52.136;4.500;2023-01-16T13:01:18;49.15;45.98;54.40;;
72858;Laerm;62742;52.136;4.500;2023-01-16T13:03:53;48.89;45.68;52.04;;
72858;Laerm;62742;52.136;4.500;2023-01-16T13:14:47;50.72;45.92;55.96;;
72858;Laerm;62742;52.136;4.500;2023-01-16T13:17:21;51.45;46.71;55.46;;
72858;Laerm;62742;52.136;4.500;2023-01-16T13:19:49;51.81;46.09;55.85;;
72858;Laerm;62742;52.136;4.500;2023-01-16T13:22:25;49.26;46.17;54.59;;
72858;Laerm;62742;52.136;4.500;2023-01-16T13:24:57;49.41;46.39;53.19;;
72858;Laerm;62742;52.136;4.500;2023-01-16T13:27:42;49.75;46.72;54.58;;
72858;Laerm;62742;52.136;4.500;2023-01-16T13:30:15;49.56;46.88;53.54;;
72858;Laerm;62742;52.136;4.500;2023-01-16T13:32:56;49.91;46.64;55.07;;
72858;Laerm;62742;52.136;4.500;2023-01-16T13:35:50;49.36;46.71;56.38;;
72858;Laerm;62742;52.136;4.500;2023-01-16T13:43:52;49.39;46.12;53.10;;
72858;Laerm;62742;52.136;4.500;2023-01-16T13:46:39;49.36;46.15;53.59;;
72858;Laerm;62742;52.136;4.500;2023-01-16T13:49:07;49.60;46.66;55.79;;
72858;Laerm;62742;52.136;4.500;2023-01-16T13:51:43;49.65;43.46;57.49;;
72858;Laerm;62742;52.136;4.500;2023-01-16T13:54:16;49.09;44.81;57.66;;
72858;Laerm;62742;52.136;4.500;2023-01-16T13:57:00;49.49;46.26;55.46;;
72858;Laerm;62742;52.136;4.500;2023-01-16T13:59:43;50.17;46.06;58.88;;
72858;Laerm;62742;52.136;4.500;2023-01-16T14:10:45;51.81;45.87;60.47;;
72858;Laerm;62742;52.136;4.500;2023-01-16T14:13:24;48.81;45.89;54.43;;
72858;Laerm;62742;52.136;4.500;2023-01-16T14:16:00;49.34;45.97;55.39;;
72858;Laerm;62742;52.136;4.500;2023-01-16T14:21:19;49.36;45.45;55.16;;
72858;Laerm;62742;52.136;4.500;2023-01-16T14:23:53;49.39;45.45;55.66;;
72858;Laerm;62742;52.136;4.500;2023-01-16T14:26:35;49.53;45.51;56.33;;
72858;Laerm;62742;52.136;4.500;2023-01-16T14:29:21;50.25;45.40;57.35;;
72858;Laerm;62742;52.136;4.500;2023-01-16T14:34:36;49.50;45.97;56.02;;
72858;Laerm;62742;52.136;4.500;2023-01-16T14:37:15;51.65;47.20;57.02;;
72858;Laerm;62742;52.136;4.500;2023-01-16T14:39:54;51.11;46.80;58.24;;
72858;Laerm;62742;52.136;4.500;2023-01-16T14:42:28;49.93;44.78;57.77;;
72858;Laerm;62742;52.136;4.500;2023-01-16T14:45:25;49.71;46.00;55.47;;
72858;Laerm;62742;52.136;4.500;2023-01-16T14:48:35;50.24;46.62;56.26;;
72858;Laerm;62742;52.136;4.500;2023-01-16T14:59:35;49.16;45.28;55.26;;
72858;Laerm;62742;52.136;4.500;2023-01-16T15:02:14;48.79;45.77;53.17;;
72858;Laerm;62742;52.136;4.500;2023-01-16T15:07:28;49.54;43.65;57.71;;
72858;Laerm;62742;52.136;4.500;2023-01-16T15:10:03;49.42;45.96;55.72;;
72858;Laerm;62742;52.136;4.500;2023-01-16T15:12:40;49.67;45.82;56.78;;
72858;Laerm;62742;52.136;4.500;2023-01-16T15:15:20;49.91;45.68;55.95;;
72858;Laerm;62742;52.136;4.500;2023-01-16T15:17:50;49.42;46.13;55.32;;
72858;Laerm;62742;52.136;4.500;2023-01-16T15:20:37;49.36;46.29;55.30;;
72858;Laerm;62742;52.136;4.500;2023-01-16T15:23:30;48.99;45.86;55.39;;
72858;Laerm;62742;52.136;4.500;2023-01-16T15:31:35;48.88;46.12;55.40;;
72858;Laerm;62742;52.136;4.500;2023-01-16T15:34:18;49.55;46.46;54.61;;
72858;Laerm;62742;52.136;4.500;2023-01-16T15:36:50;49.55;46.24;55.17;;
72858;Laerm;62742;52.136;4.500;2023-01-16T15:42:04;49.21;46.24;53.57;;
72858;Laerm;62742;52.136;4.500;2023-01-16T15:44:52;48.88;46.27;55.23;;
72858;Laerm;62742;52.136;4.500;2023-01-16T15:53:00;49.88;46.46;54.09;;
72858;Laerm;62742;52.136;4.500;2023-01-16T15:55:36;49.52;46.52;53.40;;
72858;Laerm;62742;52.136;4.500;2023-01-16T15:58:05;49.98;46.59;55.95;;
72858;Laerm;62742;52.136;4.500;2023-01-16T16:00:38;49.68;46.46;55.60;;
72858;Laerm;62742;52.136;4.500;2023-01-16T16:03:12;49.87;46.74;55.95;;
72858;Laerm;62742;52.136;4.500;2023-01-16T16:05:43;49.79;46.47;57.72;;
72858;Laerm;62742;52.136;4.500;2023-01-16T16:08:23;50.22;46.93;55.45;;
72858;Laerm;62742;52.136;4.500;2023-01-16T16:10:54;50.49;47.20;56.47;;
72858;Laerm;62742;52.136;4.500;2023-01-16T16:13:41;50.31;46.90;56.14;;
72858;Laerm;62742;52.136;4.500;2023-01-16T16:16:34;49.86;46.19;55.66;;
72858;Laerm;62742;52.136;4.500;2023-01-16T16:19:39;49.88;46.57;55.30;;
72858;Laerm;62742;52.136;4.500;2023-01-16T16:22:09;49.53;46.39;54.47;;
72858;Laerm;62742;52.136;4.500;2023-01-16T16:24:55;49.50;46.20;54.66;;
72858;Laerm;62742;52.136;4.500;2023-01-16T16:27:21;49.68;45.95;56.94;;
72858;Laerm;62742;52.136;4.500;2023-01-16T16:29:52;49.68;46.47;56.07;;
72858;Laerm;62742;52.136;4.500;2023-01-16T16:32:19;49.87;46.60;54.01;;
72858;Laerm;62742;52.136;4.500;2023-01-16T16:34:56;49.49;46.29;55.57;;
72858;Laerm;62742;52.136;4.500;2023-01-16T16:37:23;49.67;46.48;54.38;;
72858;Laerm;62742;52.136;4.500;2023-01-16T16:40:11;49.58;46.19;55.87;;
72858;Laerm;62742;52.136;4.500;2023-01-16T16:45:18;50.87;46.87;57.06;;
72858;Laerm;62742;52.136;4.500;2023-01-16T16:47:47;50.71;46.36;56.97;;
72858;Laerm;62742;52.136;4.500;2023-01-16T16:50:35;50.25;46.71;56.63;;
72858;Laerm;62742;52.136;4.500;2023-01-16T16:53:11;50.02;47.16;56.15;;
72858;Laerm;62742;52.136;4.500;2023-01-16T16:55:47;50.20;47.32;56.32;;
72858;Laerm;62742;52.136;4.500;2023-01-16T16:58:17;50.43;47.25;57.53;;
72858;Laerm;62742;52.136;4.500;2023-01-16T17:00:45;50.53;46.61;57.40;;